Terminal Aerodrome Forecast
Issued by NWS Shreveport, LA

Home | Current Version | Previous Version | Text Only | Print | Product List | Glossary On
Versions: 1 2 3 4 5 6 7 8 9 10 11 12 13 14 15
000
FTUS44 KSHV 232300
TAFLFK
TAF
KLFK 232335Z 2400/2424 VRB03KT P6SM SCT250
     FM240300 VRB06KT P6SM VCTS SCT040CB
      TEMPO 2403/2404 02020G45KT 3SM -TSRA SCT040CB BKN250
     FM240400 36007KT P6SM FEW050 SCT250
     FM240600 00000KT P6SM SKC
      TEMPO 2410/2413 2SM BR BKN010
     FM241500 27005KT P6SM SCT030 SCT250=

USA.gov is the U.S. government's official web portal to all federal, state and local government web resources and services.